Time;durP1;ratioP1;P1;durP2;ratioP2;P2;SDS_P1;SDS_P2;PMS_P1;PMS_P2;Temp;Humidity;BMP_temperature;BMP_pressure;BME280_temperature;BME280_humidity;BME280_pressure;Samples;Min_cycle;Max_cycle;Signal;HPM_P1;HPM_P2
2021/06/15 00:04:34;;;;;;;6.53;5.88;;;;;;;10.53;68.24;100195.62;254528;1101;115258;-74
2021/06/15 00:09:37;;;;;;;11.70;6.30;;;;;;;10.44;68.23;100188.95;254496;1101;115408;-74
2021/06/15 00:14:42;;;;;;;9.58;6.18;;;;;;;10.34;68.64;100186.01;254459;1104;115490;-75
2021/06/15 00:19:45;;;;;;;7.03;4.93;;;;;;;10.19;68.54;100182.84;254475;1103;115124;-75
2021/06/15 00:24:51;;;;;;;6.03;5.45;;;;;;;10.06;69.06;100175.83;254447;1097;115678;-76
2021/06/15 00:29:58;;;;;;;7.08;6.40;;;;;;;10.06;68.61;100171.31;254418;1102;115464;-77
2021/06/15 00:35:02;;;;;;;8.85;5.65;;;;;;;10.13;69.60;100157.91;254391;1103;115422;-77
2021/06/15 00:40:06;;;;;;;8.13;7.33;;;;;;;10.07;68.87;100156.14;255310;1097;115341;-78
2021/06/15 00:45:14;;;;;;;7.00;6.30;;;;;;;10.04;69.65;100145.93;254753;1103;115923;-78
2021/06/15 00:50:20;;;;;;;5.80;5.18;;;;;;;9.89;69.20;100143.61;254549;1104;115313;-78
2021/06/15 00:55:28;;;;;;;7.53;6.83;;;;;;;9.90;69.47;100133.77;255191;1102;115006;-78
2021/06/15 01:00:32;;;;;;;9.18;6.65;;;;;;;9.86;69.28;100138.72;254463;1097;114988;-76
2021/06/15 01:05:36;;;;;;;9.70;7.13;;;;;;;9.84;69.90;100145.30;254427;1101;114769;-76
2021/06/15 01:11:08;;;;;;;8.40;7.47;;;;;;;9.81;69.30;100141.22;254890;1101;115128;-78
2021/06/15 01:16:16;;;;;;;7.25;6.38;;;;;;;9.74;69.06;100145.82;254288;1104;115537;-77
2021/06/15 01:21:22;;;;;;;12.20;6.88;;;;;;;9.65;69.61;100147.13;254403;1104;115771;-76
2021/06/15 01:27:00;;;;;;;10.35;7.95;;;;;;;9.55;69.81;100147.61;254422;1104;115119;-76
2021/06/15 01:32:11;;;;;;;9.18;7.33;;;;;;;9.51;69.53;100134.95;254491;1103;116029;-77
2021/06/15 01:37:23;;;;;;;7.88;6.80;;;;;;;9.38;70.28;100131.38;254323;1104;115480;-75
2021/06/15 01:42:36;;;;;;;23.45;9.13;;;;;;;9.34;70.07;100121.39;254513;1096;116286;-77
2021/06/15 01:47:43;;;;;;;13.03;7.20;;;;;;;9.40;70.31;100131.17;254467;1104;116270;-76
2021/06/15 01:52:47;;;;;;;;;;;;;;;9.42;70.21;100131.77;254714;1103;117127;-75
2021/06/15 01:57:52;;;;;;;8.65;7.70;;;;;;;9.38;70.37;100131.38;255393;1104;103613;-75
2021/06/15 02:02:56;;;;;;;7.67;6.73;;;;;;;9.26;69.81;100140.27;254507;1104;115985;-76
2021/06/15 02:08:03;;;;;;;11.78;7.95;;;;;;;9.26;70.53;100129.63;254582;1103;115627;-77
2021/06/15 02:13:08;;;;;;;9.40;8.13;;;;;;;9.26;70.99;100129.63;254906;1104;117108;-75
2021/06/15 02:18:12;;;;;;;10.60;8.55;;;;;;;9.26;70.48;100138.42;254496;1104;116090;-75
2021/06/15 02:23:22;;;;;;;8.15;5.28;;;;;;;9.25;71.27;100128.00;254224;1100;117112;-74
2021/06/15 02:28:25;;;;;;;7.48;6.73;;;;;;;9.10;70.96;100141.63;254467;1104;115430;-75
2021/06/15 02:33:33;;;;;;;9.20;8.13;;;;;;;9.11;71.26;100141.41;255322;1103;115585;-75
2021/06/15 02:38:53;;;;;;;10.08;6.98;;;;;;;9.22;71.42;100144.39;254650;1102;115188;-75
2021/06/15 02:44:01;;;;;;;9.88;7.70;;;;;;;9.18;71.91;100143.19;255209;1104;115728;-74
2021/06/15 02:49:12;;;;;;;8.25;5.30;;;;;;;9.15;71.92;100139.14;254565;1097;116451;-74
2021/06/15 02:54:35;;;;;;;7.75;6.23;;;;;;;9.05;71.61;100144.92;255223;1103;116732;-75
2021/06/15 02:59:39;;;;;;;9.63;7.10;;;;;;;9.04;71.39;100147.80;254792;1103;115992;-75
2021/06/15 03:04:46;;;;;;;17.28;8.80;;;;;;;9.07;71.11;100150.03;256527;1101;114742;-73
2021/06/15 03:09:50;;;;;;;11.57;8.73;;;;;;;9.21;71.77;100156.06;257518;1102;115223;-73
2021/06/15 03:15:00;;;;;;;10.38;6.78;;;;;;;9.31;71.74;100156.41;257317;1103;115086;-73
2021/06/15 03:20:10;;;;;;;10.03;7.70;;;;;;;9.45;72.42;100155.28;257307;1102;114856;-73
2021/06/15 03:25:19;;;;;;;10.93;9.43;;;;;;;9.66;71.97;100154.08;257459;1103;116193;-73
2021/06/15 03:30:25;;;;;;;14.30;9.90;;;;;;;9.88;72.49;100146.48;255071;1103;116819;-75
2021/06/15 03:35:31;;;;;;;11.18;8.28;;;;;;;10.00;71.86;100150.06;255043;1103;115222;-75
2021/06/15 03:40:41;;;;;;;11.10;6.98;;;;;;;10.23;72.02;100154.77;255951;1103;115624;-73
2021/06/15 03:45:52;;;;;;;10.80;7.98;;;;;;;10.44;72.46;100156.97;254366;1103;116311;-74
2021/06/15 03:51:01;;;;;;;15.58;9.45;;;;;;;10.58;72.18;100162.96;255465;1103;116154;-74
2021/06/15 03:56:07;;;;;;;9.80;8.38;;;;;;;10.86;71.49;100155.20;254732;1102;117544;-75
2021/06/15 04:01:15;;;;;;;13.83;9.13;;;;;;;11.03;71.70;100158.84;254774;1102;116706;-75
2021/06/15 04:06:22;;;;;;;10.50;8.83;;;;;;;11.17;71.84;100156.81;254670;1101;116120;-74
2021/06/15 04:11:29;;;;;;;13.35;9.75;;;;;;;11.41;72.10;100166.48;254362;1101;116806;-74
2021/06/15 04:16:32;;;;;;;15.30;9.23;;;;;;;11.74;72.05;100167.80;254960;1103;116381;-74
2021/06/15 04:21:42;;;;;;;17.63;10.65;;;;;;;12.17;72.07;100158.66;254439;1104;115952;-76
2021/06/15 04:26:46;;;;;;;13.15;9.05;;;;;;;12.61;71.97;100151.78;254581;1102;117000;-74
2021/06/15 04:31:53;;;;;;;9.08;8.18;;;;;;;13.77;71.53;100150.34;254435;1103;116128;-74
2021/06/15 04:37:05;;;;;;;7.30;6.55;;;;;;;18.15;65.57;100148.25;254642;1104;117076;-72
2021/06/15 04:42:15;;;;;;;9.45;7.85;;;;;;;22.44;60.30;100143.85;254167;1103;116323;-74
2021/06/15 04:47:27;;;;;;;9.00;8.00;;;;;;;23.18;58.97;100161.54;254556;1104;116016;-73
2021/06/15 04:52:38;;;;;;;9.13;7.85;;;;;;;23.33;56.85;100157.63;254627;1103;117703;-76
2021/06/15 04:57:46;;;;;;;11.15;9.38;;;;;;;22.23;55.97;100165.20;254868;1103;116563;-74
2021/06/15 05:02:52;;;;;;;15.50;10.27;;;;;;;22.10;55.44;100168.70;254567;1104;116007;-74
2021/06/15 05:08:01;;;;;;;10.83;8.90;;;;;;;24.15;52.98;100170.00;255019;1103;117368;-73
2021/06/15 05:13:09;;;;;;;12.93;10.27;;;;;;;26.93;49.15;100169.30;254482;1104;116464;-74
2021/06/15 05:18:13;;;;;;;10.98;7.70;;;;;;;30.01;46.18;100172.94;255070;1103;117126;-78
2021/06/15 05:23:23;;;;;;;10.73;7.93;;;;;;;32.67;42.80;100180.28;254166;1104;116373;-77
2021/06/15 05:28:26;;;;;;;9.03;6.07;;;;;;;34.45;38.54;100183.06;254389;1096;116728;-75
2021/06/15 05:33:31;;;;;;;9.40;5.25;;;;;;;36.14;35.95;100186.08;254526;1104;116362;-78
2021/06/15 05:38:36;;;;;;;5.63;3.83;;;;;;;37.77;33.06;100195.15;254505;1104;116497;-78
2021/06/15 05:43:40;;;;;;;6.30;3.98;;;;;;;38.43;29.86;100193.03;255062;1102;115935;-77
2021/06/15 05:48:44;;;;;;;4.23;3.83;;;;;;;38.05;28.39;100192.15;254467;1104;116002;-77
2021/06/15 05:53:49;;;;;;;5.15;3.65;;;;;;;38.29;27.21;100193.16;254399;1104;116028;-77
2021/06/15 05:58:52;;;;;;;4.30;3.90;;;;;;;39.37;26.59;100186.80;254412;1103;116096;-77
2021/06/15 06:09:06;;;;;;;3.25;2.95;;;;;;;41.17;24.65;100186.95;255446;1101;117205;-78
2021/06/15 06:14:11;;;;;;;3.58;3.28;;;;;;;40.81;23.17;100184.07;254534;1101;117570;-78
2021/06/15 06:19:16;;;;;;;4.17;3.37;;;;;;;39.64;23.89;100186.84;254478;1101;116850;-78
2021/06/15 06:24:22;;;;;;;3.68;2.43;;;;;;;39.10;23.88;100190.77;254332;1102;117065;-77
2021/06/15 06:29:27;;;;;;;3.70;3.40;;;;;;;38.76;23.60;100199.89;254468;1104;116938;-78
2021/06/15 06:34:31;;;;;;;5.15;4.65;;;;;;;37.37;24.41;100200.12;254643;1104;117328;-78
2021/06/15 06:39:38;;;;;;;3.70;3.00;;;;;;;36.48;24.85;100191.23;254542;1103;116153;-78
2021/06/15 06:44:43;;;;;;;5.83;3.63;;;;;;;36.54;23.85;100195.20;254741;1104;116774;-77
2021/06/15 06:49:51;;;;;;;3.63;2.83;;;;;;;37.46;23.45;100192.13;254463;1104;117463;-78
2021/06/15 06:54:54;;;;;;;3.50;2.67;;;;;;;37.67;24.86;100189.23;254401;1104;116675;-77
2021/06/15 06:59:58;;;;;;;5.58;3.30;;;;;;;38.79;23.96;100185.13;254436;1104;116189;-78
2021/06/15 07:05:01;;;;;;;4.47;3.33;;;;;;;39.08;23.02;100188.39;254776;1104;115555;-78
2021/06/15 07:10:05;;;;;;;3.18;2.88;;;;;;;39.04;22.27;100188.43;254300;1103;115120;-78
2021/06/15 07:15:10;;;;;;;4.90;4.40;;;;;;;39.39;22.01;100180.80;255229;1103;114966;-74
2021/06/15 07:20:14;;;;;;;8.10;3.17;;;;;;;39.25;22.22;100178.20;256220;1103;115912;-77
2021/06/15 07:25:18;;;;;;;6.93;3.50;;;;;;;38.12;22.42;100178.20;256198;1102;114674;-77
2021/06/15 07:30:22;;;;;;;3.33;3.03;;;;;;;36.51;22.88;100179.33;256275;1103;115511;-78
2021/06/15 07:35:29;;;;;;;3.13;2.90;;;;;;;35.36;23.46;100174.86;257345;1103;114677;-77
2021/06/15 07:40:32;;;;;;;4.00;3.50;;;;;;;34.73;24.54;100173.34;255858;1103;114995;-77
2021/06/15 07:45:38;;;;;;;5.08;3.35;;;;;;;34.57;25.45;100168.09;254788;1104;114573;-76
2021/06/15 07:50:44;;;;;;;3.33;3.03;;;;;;;33.98;25.85;100177.52;255332;1104;115528;-76
2021/06/15 07:55:49;;;;;;;5.60;3.85;;;;;;;33.64;26.74;100172.03;254456;1101;115031;-76
2021/06/15 08:00:57;;;;;;;5.05;4.55;;;;;;;33.43;26.86;100174.58;255443;1101;115252;-78
2021/06/15 08:06:01;;;;;;;3.33;3.03;;;;;;;32.12;26.33;100160.48;255287;1102;115996;-78
2021/06/15 08:11:06;;;;;;;6.50;4.43;;;;;;;31.24;27.59;100164.36;254672;1101;115986;-77
2021/06/15 08:16:11;;;;;;;4.33;3.60;;;;;;;30.90;28.67;100158.52;255150;1097;115026;-77
2021/06/15 08:21:16;;;;;;;5.13;3.63;;;;;;;30.90;29.24;100155.77;254289;1095;114587;-76
2021/06/15 08:26:19;;;;;;;5.90;4.43;;;;;;;30.66;28.82;100156.03;254421;1097;115220;-77
2021/06/15 08:31:24;;;;;;;5.98;4.20;;;;;;;30.54;29.68;100162.44;254432;1097;118304;-77
2021/06/15 08:36:28;;;;;;;6.40;4.55;;;;;;;30.35;29.55;100160.41;254842;1103;115568;-77
2021/06/15 08:41:32;;;;;;;5.10;4.03;;;;;;;29.76;30.49;100161.28;255556;1102;115732;-78
2021/06/15 08:46:36;;;;;;;8.05;4.45;;;;;;;29.60;30.16;100160.48;254330;1102;115837;-75
2021/06/15 08:51:41;;;;;;;5.63;4.83;;;;;;;29.09;29.82;100156.65;254434;1097;115738;-75
2021/06/15 08:56:46;;;;;;;5.50;4.70;;;;;;;29.41;30.87;100144.65;254478;1097;115493;-75
2021/06/15 09:02:05;;;;;;;10.23;5.73;;;;;;;29.66;30.10;100150.80;254317;1104;115588;-75
2021/06/15 09:07:10;;;;;;;6.43;5.50;;;;;;;29.69;30.34;100150.09;254407;1103;116009;-76
2021/06/15 09:12:20;;;;;;;5.20;4.70;;;;;;;29.49;30.60;100151.14;254271;1097;115426;-75
2021/06/15 09:17:28;;;;;;;11.08;5.68;;;;;;;29.29;30.38;100143.89;254418;1103;115380;-75
2021/06/15 09:22:34;;;;;;;8.80;5.38;;;;;;;29.23;30.58;100135.11;256181;1102;116283;-77
2021/06/15 09:27:39;;;;;;;9.30;5.30;;;;;;;29.19;31.84;100136.15;255830;1103;115920;-77
2021/06/15 09:32:46;;;;;;;7.53;5.65;;;;;;;29.25;31.73;100137.50;257468;1103;115369;-76
2021/06/15 09:37:56;;;;;;;4.23;3.83;;;;;;;29.29;31.19;100136.45;257187;1102;116016;-76
2021/06/15 09:43:18;;;;;;;5.75;4.20;;;;;;;28.89;32.02;100128.25;254301;1104;116202;-76
2021/06/15 09:48:31;;;;;;;4.90;4.50;;;;;;;28.93;31.59;100131.91;254694;1102;117109;-76
2021/06/15 09:53:39;;;;;;;8.20;4.65;;;;;;;29.07;31.73;100118.56;256075;1101;115865;-76
2021/06/15 09:58:58;;;;;;;13.18;5.30;;;;;;;28.88;31.54;100115.67;254582;1103;115351;-76
2021/06/15 10:04:15;;;;;;;6.05;4.18;;;;;;;28.97;31.58;100121.83;255343;1103;115673;-76
2021/06/15 10:09:29;;;;;;;6.18;5.55;;;;;;;28.88;31.70;100117.63;255078;1101;115586;-76
2021/06/15 10:14:37;;;;;;;7.30;4.80;;;;;;;29.12;31.85;100123.02;255309;1103;115301;-75
2021/06/15 10:19:46;;;;;;;6.30;5.03;;;;;;;29.24;30.75;100108.45;254559;1104;116188;-76
2021/06/15 10:24:50;;;;;;;4.50;4.15;;;;;;;29.20;31.47;100111.09;254441;1103;116800;-76
2021/06/15 10:29:53;;;;;;;10.20;5.40;;;;;;;29.23;31.54;100102.16;254800;1102;116113;-76
2021/06/15 10:35:12;;;;;;;5.53;4.65;;;;;;;29.37;32.23;100108.02;254451;1103;117111;-75
2021/06/15 10:40:24;;;;;;;5.00;4.30;;;;;;;29.30;31.14;100110.59;254499;1104;116963;-76
2021/06/15 10:45:30;;;;;;;7.83;5.43;;;;;;;29.04;31.00;100111.06;254953;1097;116880;-76
2021/06/15 10:50:41;;;;;;;7.70;5.00;;;;;;;28.90;31.62;100113.39;254508;1103;116349;-75
2021/06/15 10:55:46;;;;;;;11.10;5.85;;;;;;;28.80;30.72;100095.42;254542;1103;115925;-75
2021/06/15 11:00:52;;;;;;;6.35;4.65;;;;;;;29.13;31.30;100086.98;254980;1102;115223;-75
2021/06/15 11:05:59;;;;;;;8.10;6.25;;;;;;;29.20;30.72;100085.59;254787;1104;115898;-74
2021/06/15 11:11:20;;;;;;;5.85;5.28;;;;;;;29.30;31.67;100079.59;254443;1103;115435;-75
2021/06/15 11:16:34;;;;;;;9.85;6.05;;;;;;;29.24;31.61;100073.55;255299;1103;119125;-76
2021/06/15 11:21:45;;;;;;;6.83;5.20;;;;;;;29.01;31.75;100059.61;256505;1103;115892;-76
2021/06/15 11:26:51;;;;;;;5.93;5.05;;;;;;;29.01;32.10;100056.86;254697;1104;115896;-75
2021/06/15 11:32:15;;;;;;;6.60;4.70;;;;;;;29.02;31.77;100047.48;254455;1103;115627;-75
2021/06/15 11:37:38;;;;;;;5.28;4.40;;;;;;;29.05;31.35;100054.19;255291;1104;115537;-74
2021/06/15 11:43:08;;;;;;;10.10;5.15;;;;;;;29.00;31.61;100044.29;257254;1104;116950;-77
2021/06/15 11:48:33;;;;;;;5.70;4.98;;;;;;;28.99;31.67;100048.18;256365;1103;116438;-75
2021/06/15 11:53:40;;;;;;;8.25;5.00;;;;;;;29.19;31.12;100046.35;257284;1103;116007;-76
2021/06/15 11:58:55;;;;;;;5.73;5.18;;;;;;;29.26;31.16;100030.08;257065;1104;115057;-77
2021/06/15 12:04:08;;;;;;;6.35;5.05;;;;;;;29.20;31.20;100039.71;255322;1097;115254;-76
2021/06/15 12:09:11;;;;;;;5.90;5.18;;;;;;;29.25;31.08;100033.97;255151;1102;115236;-73
2021/06/15 12:14:14;;;;;;;5.15;4.65;;;;;;;29.21;31.50;100026.78;256063;1102;115604;-75
2021/06/15 12:19:18;;;;;;;8.15;4.83;;;;;;;29.28;31.87;100027.77;254430;1102;115568;-75
2021/06/15 12:24:21;;;;;;;5.40;4.90;;;;;;;29.04;30.97;100015.00;254445;1097;115704;-75
2021/06/15 12:29:24;;;;;;;5.95;3.13;;;;;;;28.97;31.59;100009.31;254849;1102;115646;-76
2021/06/15 12:34:27;;;;;;;5.85;5.30;;;;;;;28.83;31.38;100012.45;254485;1097;115288;-74
2021/06/15 12:39:36;;;;;;;4.73;4.33;;;;;;;28.80;31.88;99999.40;254523;1103;118194;-75
2021/06/15 12:44:43;;;;;;;7.65;5.90;;;;;;;28.71;31.27;99996.03;254511;1103;116209;-77
2021/06/15 12:49:55;;;;;;;16.23;6.17;;;;;;;28.80;32.35;99996.66;254433;1104;116364;-75
2021/06/15 12:55:14;;;;;;;5.18;4.68;;;;;;;28.98;31.92;99988.95;254906;1104;115977;-73
2021/06/15 13:00:21;;;;;;;8.85;4.38;;;;;;;28.92;32.72;99987.61;254782;1104;117044;-74
2021/06/15 13:05:26;;;;;;;7.17;5.23;;;;;;;28.82;32.73;99983.42;254453;1104;116017;-75
2021/06/15 13:10:31;;;;;;;5.15;4.55;;;;;;;28.80;32.46;99987.63;255403;1104;116071;-76
2021/06/15 13:15:34;;;;;;;5.23;4.70;;;;;;;28.60;32.21;99981.21;255425;1104;115694;-79
2021/06/15 13:20:38;;;;;;;6.28;4.70;;;;;;;28.52;31.95;99979.41;254462;1104;116040;-77
2021/06/15 13:25:42;;;;;;;5.60;5.10;;;;;;;28.68;33.04;99971.24;254437;1104;115957;-77
2021/06/15 13:30:45;;;;;;;5.10;4.60;;;;;;;28.88;32.47;99972.19;254498;1103;138530;-73
2021/06/15 13:35:55;;;;;;;6.85;4.65;;;;;;;28.88;32.39;99963.96;254382;1104;116436;-77
2021/06/15 13:41:05;;;;;;;8.08;4.98;;;;;;;28.95;32.46;99956.72;254705;1104;116654;-76
2021/06/15 13:46:14;;;;;;;5.78;5.30;;;;;;;29.06;32.59;99960.52;254832;1104;115559;-75
2021/06/15 13:51:37;;;;;;;4.55;4.03;;;;;;;28.85;32.52;99959.97;254992;1104;116204;-75
2021/06/15 13:56:45;;;;;;;7.67;4.30;;;;;;;28.68;32.61;99960.27;255208;1104;116145;-76
2021/06/15 14:01:48;;;;;;;4.63;4.23;;;;;;;28.73;33.01;99965.51;254847;1104;116675;-79
2021/06/15 14:06:53;;;;;;;7.35;4.75;;;;;;;28.78;32.83;99954.25;257374;1102;116917;-79
2021/06/15 14:11:57;;;;;;;5.73;4.13;;;;;;;28.70;32.86;99955.23;256186;1104;115569;-79
2021/06/15 14:17:01;;;;;;;5.87;5.27;;;;;;;28.67;32.70;99950.45;255198;1102;114694;-75
2021/06/15 14:22:05;;;;;;;6.77;4.30;;;;;;;28.66;33.04;99948.85;254405;1103;115675;-79
2021/06/15 14:27:08;;;;;;;9.05;5.18;;;;;;;28.55;32.87;99947.75;254291;1103;115281;-77
2021/06/15 14:32:12;;;;;;;5.08;4.13;;;;;;;28.39;33.73;99954.00;254297;1103;114888;-75
2021/06/15 14:37:15;;;;;;;;;;;;;;;28.38;33.21;99946.91;254981;1096;115189;-79
2021/06/15 14:42:18;;;;;;;5.13;3.35;;;;;;;28.30;32.92;99936.09;255016;1103;104069;-78
2021/06/15 14:47:21;;;;;;;4.30;3.90;;;;;;;28.21;33.04;99941.70;254441;1103;114970;-78
2021/06/15 14:52:25;;;;;;;4.48;4.00;;;;;;;28.13;33.50;99945.34;254385;1104;116959;-77
2021/06/15 14:57:28;;;;;;;4.23;3.70;;;;;;;28.00;33.55;99952.81;254261;1097;115848;-79
2021/06/15 15:02:31;;;;;;;8.43;4.85;;;;;;;27.92;32.94;99950.20;254372;1104;116455;-78
2021/06/15 15:07:35;;;;;;;6.15;4.40;;;;;;;28.06;33.05;99943.22;254208;1104;116493;-78
2021/06/15 15:12:38;;;;;;;6.85;4.30;;;;;;;28.07;33.13;99944.02;255446;1100;115925;-78
2021/06/15 15:17:43;;;;;;;5.00;4.50;;;;;;;27.79;32.39;99930.27;254278;1102;115698;-77
2021/06/15 15:22:53;;;;;;;7.40;4.40;;;;;;;27.73;33.15;99929.69;255738;1104;115504;-77
2021/06/15 15:27:58;;;;;;;4.13;3.73;;;;;;;27.70;33.97;99927.64;255653;1097;116981;-78
2021/06/15 15:33:02;;;;;;;5.08;4.45;;;;;;;27.54;33.70;99923.95;255590;1103;115345;-78
2021/06/15 15:38:06;;;;;;;8.10;5.23;;;;;;;27.44;35.08;99919.77;254232;1103;115479;-78
2021/06/15 15:43:12;;;;;;;6.57;5.23;;;;;;;27.35;35.70;99926.48;254836;1103;115915;-73
2021/06/15 15:48:16;;;;;;;4.90;4.50;;;;;;;27.16;35.94;99930.59;255789;1103;116644;-78
2021/06/15 15:53:20;;;;;;;4.53;4.13;;;;;;;27.00;35.71;99929.64;255480;1097;116495;-78
2021/06/15 15:58:23;;;;;;;4.10;3.73;;;;;;;26.83;36.14;99924.34;256797;1102;115857;-79
2021/06/15 16:03:27;;;;;;;10.37;5.90;;;;;;;26.65;37.20;99925.64;255699;1103;116784;-78
2021/06/15 16:08:31;;;;;;;6.10;5.30;;;;;;;26.50;37.77;99925.16;256458;1104;116421;-76
2021/06/15 16:13:35;;;;;;;7.40;4.37;;;;;;;26.37;37.70;99922.70;254228;1104;116305;-76
2021/06/15 16:18:48;;;;;;;7.63;4.90;;;;;;;26.20;38.96;99920.10;254600;1103;116251;-78
2021/06/15 16:23:52;;;;;;;10.50;5.60;;;;;;;26.03;39.85;99915.56;254382;1097;118671;-79
2021/06/15 16:28:55;;;;;;;10.00;6.13;;;;;;;25.88;40.73;99916.17;254264;1103;116099;-74
2021/06/15 16:33:59;;;;;;;18.13;8.75;;;;;;;25.73;40.93;99915.61;254478;1104;117189;-79
2021/06/15 16:39:04;;;;;;;33.50;14.20;;;;;;;25.63;41.03;99917.91;254302;1104;118030;-77
2021/06/15 16:44:08;;;;;;;36.10;14.48;;;;;;;25.56;41.85;99918.42;254601;1103;116016;-78
2021/06/15 16:49:14;;;;;;;11.43;7.75;;;;;;;25.49;43.19;99912.68;254391;1103;116855;-74
2021/06/15 16:54:18;;;;;;;31.85;12.75;;;;;;;25.44;43.63;99915.59;254504;1102;116927;-75
2021/06/15 16:59:21;;;;;;;33.90;11.08;;;;;;;25.38;44.76;99908.71;254140;1104;115919;-78
2021/06/15 17:04:25;;;;;;;7.18;5.20;;;;;;;25.33;45.73;99906.20;254313;1104;117876;-74
2021/06/15 17:09:28;;;;;;;8.45;5.43;;;;;;;25.25;45.79;99907.03;254205;1104;116656;-78
2021/06/15 17:14:31;;;;;;;5.30;4.80;;;;;;;25.14;47.02;99906.59;255241;1104;116028;-73
2021/06/15 17:19:36;;;;;;;5.88;4.93;;;;;;;25.04;47.03;99906.97;254367;1104;115631;-76
2021/06/15 17:24:40;;;;;;;7.20;5.23;;;;;;;24.92;48.16;99904.88;254630;1104;116581;-76
2021/06/15 17:29:48;;;;;;;6.27;5.43;;;;;;;24.77;48.47;99902.66;254540;1103;116571;-75
2021/06/15 17:34:52;;;;;;;6.23;5.68;;;;;;;24.61;48.78;99915.22;254536;1104;116949;-75
2021/06/15 17:39:56;;;;;;;7.28;5.65;;;;;;;24.47;48.94;99910.74;254357;1097;116134;-78
2021/06/15 17:44:59;;;;;;;5.73;5.20;;;;;;;24.30;49.37;99894.43;254371;1104;115550;-78
2021/06/15 17:50:05;;;;;;;6.93;4.60;;;;;;;24.11;49.69;99904.83;254439;1096;116753;-76
2021/06/15 17:55:14;;;;;;;6.78;6.03;;;;;;;23.97;50.49;99902.25;255180;1096;116990;-74
2021/06/15 18:00:25;;;;;;;5.28;4.75;;;;;;;23.82;51.35;99894.56;257476;1103;118154;-73
2021/06/15 18:05:52;;;;;;;7.37;5.20;;;;;;;23.70;51.77;99892.45;257437;1103;115223;-75
2021/06/15 18:10:56;;;;;;;7.60;5.67;;;;;;;23.58;52.50;99881.38;257396;1104;115471;-77
2021/06/15 18:16:00;;;;;;;8.40;5.63;;;;;;;23.48;52.60;99889.83;257357;1104;116796;-78
2021/06/15 18:21:05;;;;;;;7.03;6.43;;;;;;;23.32;53.12;99897.61;254589;1096;116162;-76
2021/06/15 18:26:11;;;;;;;6.33;5.73;;;;;;;23.17;53.46;99898.05;255088;1104;116147;-79
2021/06/15 18:31:18;;;;;;;10.75;6.18;;;;;;;23.03;53.83;99886.47;254559;1104;116117;-79
2021/06/15 18:36:22;;;;;;;7.08;6.38;;;;;;;22.87;54.49;99894.24;254176;1104;116887;-78
2021/06/15 18:41:25;;;;;;;6.45;5.68;;;;;;;22.79;54.88;99887.64;254396;1103;117177;-76
2021/06/15 18:46:29;;;;;;;8.63;6.15;;;;;;;22.71;55.26;99891.08;254336;1104;116843;-76
2021/06/15 18:51:33;;;;;;;6.37;5.00;;;;;;;22.43;55.39;99887.71;254418;1104;117232;-78
2021/06/15 18:56:41;;;;;;;7.03;6.28;;;;;;;22.20;56.22;99894.27;254394;1104;116089;-78
2021/06/15 19:01:47;;;;;;;6.93;6.30;;;;;;;22.11;56.68;99896.09;254995;1104;116598;-80
2021/06/15 19:06:50;;;;;;;7.85;7.20;;;;;;;21.96;56.89;99910.00;254336;1104;116417;-78
2021/06/15 19:11:54;;;;;;;9.10;8.20;;;;;;;21.78;56.65;99917.97;254630;1104;116092;-79
2021/06/15 19:16:58;;;;;;;7.13;6.45;;;;;;;21.60;56.31;99929.76;254560;1103;116045;-78
2021/06/15 19:22:02;;;;;;;7.35;6.65;;;;;;;21.38;56.59;99940.52;254370;1104;117329;-73
2021/06/15 19:27:07;;;;;;;6.88;6.18;;;;;;;21.20;57.12;99939.46;254923;1103;116023;-78
2021/06/15 19:32:11;;;;;;;7.00;6.25;;;;;;;21.09;57.04;99947.00;255310;1103;115254;-79
2021/06/15 19:37:15;;;;;;;10.48;7.48;;;;;;;20.99;57.35;99947.17;254468;1104;116740;-78
2021/06/15 19:42:18;;;;;;;7.50;6.75;;;;;;;20.79;57.72;99947.53;254471;1102;115909;-78
2021/06/15 19:47:27;;;;;;;10.03;8.45;;;;;;;20.67;58.05;99950.70;254201;1103;115970;-77
2021/06/15 19:52:31;;;;;;;14.48;7.98;;;;;;;20.56;58.57;99951.15;254229;1104;115927;-74
2021/06/15 19:57:34;;;;;;;8.55;7.83;;;;;;;20.39;58.79;99955.20;254577;1102;116011;-80
2021/06/15 20:02:39;;;;;;;9.55;8.55;;;;;;;20.30;59.24;99948.00;254478;1096;115909;-77
2021/06/15 20:07:44;;;;;;;11.03;7.60;;;;;;;20.29;59.22;99949.10;256374;1103;115711;-75
2021/06/15 20:12:48;;;;;;;8.63;7.90;;;;;;;20.25;59.50;99957.00;256582;1104;116141;-77
2021/06/15 20:17:51;;;;;;;12.27;7.00;;;;;;;20.26;59.81;99955.91;257310;1104;116796;-76
2021/06/15 20:22:56;;;;;;;9.30;7.30;;;;;;;20.23;60.19;99956.48;257467;1104;115709;-78
2021/06/15 20:28:01;;;;;;;7.73;7.03;;;;;;;20.22;60.29;99960.30;256779;1103;116098;-76
2021/06/15 20:33:06;;;;;;;9.55;6.65;;;;;;;20.26;60.62;99963.22;254542;1103;116760;-76
2021/06/15 20:38:10;;;;;;;11.13;7.18;;;;;;;20.28;60.78;99964.54;254632;1104;115495;-76
2021/06/15 20:43:15;;;;;;;7.35;6.68;;;;;;;20.24;60.75;99968.92;254299;1104;115760;-75
2021/06/15 20:48:21;;;;;;;12.63;8.10;;;;;;;20.21;61.25;99980.34;255436;1103;117235;-76
2021/06/15 20:53:26;;;;;;;19.85;8.10;;;;;;;20.21;61.21;99980.34;254503;1104;117025;-78
2021/06/15 20:58:32;;;;;;;8.08;7.38;;;;;;;20.19;61.39;99983.33;254578;1101;116472;-77
2021/06/15 21:03:35;;;;;;;;;;;;;;;20.14;61.70;99996.16;254801;1104;116537;-78
2021/06/15 21:08:39;;;;;;;7.68;6.78;;;;;;;20.04;61.54;99990.87;255445;1103;103024;-77
2021/06/15 21:13:44;;;;;;;8.43;7.65;;;;;;;19.97;61.87;99985.81;254649;1104;115424;-76
2021/06/15 21:18:47;;;;;;;8.23;7.43;;;;;;;19.97;62.34;99991.22;254338;1103;115340;-74
2021/06/15 21:23:49;;;;;;;8.78;7.88;;;;;;;19.95;62.45;99998.02;254467;1103;116125;-77
2021/06/15 21:28:53;;;;;;;9.17;8.23;;;;;;;19.92;62.58;100001.30;254475;1103;115671;-77
2021/06/15 21:33:58;;;;;;;9.75;8.73;;;;;;;19.90;62.74;100000.78;254513;1096;116606;-77
2021/06/15 21:39:04;;;;;;;14.98;7.80;;;;;;;19.83;62.77;100014.69;254944;1104;115316;-78
2021/06/15 21:44:07;;;;;;;12.20;7.35;;;;;;;19.78;63.14;100023.66;254377;1103;114958;-75
2021/06/15 21:49:11;;;;;;;8.28;7.48;;;;;;;19.66;63.02;100017.03;255262;1097;115496;-76
2021/06/15 21:54:15;;;;;;;8.63;7.73;;;;;;;19.63;63.30;100010.30;254669;1104;115434;-74
2021/06/15 21:59:18;;;;;;;9.30;8.33;;;;;;;19.64;63.62;100014.61;254708;1104;116785;-77
2021/06/15 22:04:21;;;;;;;9.87;8.50;;;;;;;19.64;63.63;100011.91;254459;1103;115623;-75
2021/06/15 22:09:25;;;;;;;18.55;7.88;;;;;;;19.58;63.62;100006.84;255812;1104;115306;-76
2021/06/15 22:14:28;;;;;;;11.38;8.43;;;;;;;19.38;63.62;100008.64;254925;1104;115349;-77
2021/06/15 22:19:32;;;;;;;9.57;8.67;;;;;;;19.31;63.92;100012.77;255844;1104;115137;-77
2021/06/15 22:24:35;;;;;;;9.33;8.30;;;;;;;19.27;64.05;100017.13;255309;1103;117671;-79
2021/06/15 22:29:39;;;;;;;11.88;8.98;;;;;;;19.24;64.71;100020.43;256059;1104;115475;-78
2021/06/15 22:34:43;;;;;;;17.00;7.87;;;;;;;19.15;64.07;100015.63;255116;1104;116749;-77
2021/06/15 22:39:47;;;;;;;9.98;8.15;;;;;;;19.07;64.40;100010.03;254516;1104;115759;-74
2021/06/15 22:44:50;;;;;;;8.57;7.50;;;;;;;18.97;64.53;100026.31;254496;1103;115555;-76
2021/06/15 22:49:53;;;;;;;11.85;9.68;;;;;;;18.93;64.70;100022.59;254522;1104;116282;-77
2021/06/15 22:54:56;;;;;;;10.15;9.18;;;;;;;18.86;64.88;100016.70;255109;1102;115925;-77
2021/06/15 23:00:03;;;;;;;9.43;8.10;;;;;;;18.76;65.11;100026.48;254727;1104;115333;-76
2021/06/15 23:05:08;;;;;;;8.90;7.78;;;;;;;18.76;65.60;100015.69;255441;1103;116903;-74
2021/06/15 23:10:19;;;;;;;16.23;8.15;;;;;;;18.55;64.80;100008.80;255276;1104;116872;-73
2021/06/15 23:15:23;;;;;;;10.45;7.15;;;;;;;18.39;65.46;100013.47;254454;1104;116287;-77
2021/06/15 23:20:28;;;;;;;10.00;9.03;;;;;;;18.33;65.94;100017.31;254877;1102;116270;-77
2021/06/15 23:25:32;;;;;;;9.90;7.50;;;;;;;18.26;66.27;100016.80;254685;1103;115771;-77